sensor_id;sensor_type;location;lat;lon;timestamp;P1;durP1;ratioP1;P2;durP2;ratioP2
59786;SDS011;45672;51.612;5.536;2023-11-22T00:01:49;20.13;;;13.43;;
59786;SDS011;45672;51.612;5.536;2023-11-22T00:04:14;18.75;;;13.45;;
59786;SDS011;45672;51.612;5.536;2023-11-22T00:06:40;17.60;;;13.07;;
59786;SDS011;45672;51.612;5.536;2023-11-22T00:09:05;19.67;;;13.65;;
59786;SDS011;45672;51.612;5.536;2023-11-22T00:11:32;22.90;;;13.75;;
59786;SDS011;45672;51.612;5.536;2023-11-22T00:13:57;21.38;;;13.73;;
59786;SDS011;45672;51.612;5.536;2023-11-22T00:16:22;18.60;;;13.43;;
59786;SDS011;45672;51.612;5.536;2023-11-22T00:18:48;21.50;;;13.95;;
59786;SDS011;45672;51.612;5.536;2023-11-22T00:21:13;19.00;;;13.75;;
59786;SDS011;45672;51.612;5.536;2023-11-22T00:23:39;19.85;;;13.63;;
59786;SDS011;45672;51.612;5.536;2023-11-22T00:26:04;19.52;;;13.75;;
59786;SDS011;45672;51.612;5.536;2023-11-22T00:28:31;17.27;;;12.95;;
59786;SDS011;45672;51.612;5.536;2023-11-22T00:30:56;18.80;;;13.00;;
59786;SDS011;45672;51.612;5.536;2023-11-22T00:33:21;18.20;;;13.70;;
59786;SDS011;45672;51.612;5.536;2023-11-22T00:35:47;19.25;;;13.45;;
59786;SDS011;45672;51.612;5.536;2023-11-22T00:38:12;19.40;;;13.30;;
59786;SDS011;45672;51.612;5.536;2023-11-22T00:40:37;23.95;;;14.10;;
59786;SDS011;45672;51.612;5.536;2023-11-22T00:43:03;19.42;;;13.07;;
59786;SDS011;45672;51.612;5.536;2023-11-22T00:45:28;21.27;;;14.10;;
59786;SDS011;45672;51.612;5.536;2023-11-22T00:47:54;20.10;;;13.63;;
59786;SDS011;45672;51.612;5.536;2023-11-22T00:50:20;20.15;;;12.73;;
59786;SDS011;45672;51.612;5.536;2023-11-22T00:52:46;19.50;;;13.85;;
59786;SDS011;45672;51.612;5.536;2023-11-22T00:55:12;19.20;;;13.13;;
59786;SDS011;45672;51.612;5.536;2023-11-22T00:57:37;20.23;;;12.90;;
59786;SDS011;45672;51.612;5.536;2023-11-22T01:00:03;20.33;;;13.48;;
59786;SDS011;45672;51.612;5.536;2023-11-22T01:02:30;20.42;;;13.75;;
59786;SDS011;45672;51.612;5.536;2023-11-22T01:04:55;16.77;;;12.70;;
59786;SDS011;45672;51.612;5.536;2023-11-22T01:07:21;18.63;;;13.93;;
59786;SDS011;45672;51.612;5.536;2023-11-22T01:09:46;18.42;;;13.45;;
59786;SDS011;45672;51.612;5.536;2023-11-22T01:12:11;20.92;;;13.85;;
59786;SDS011;45672;51.612;5.536;2023-11-22T01:14:38;20.55;;;14.55;;
59786;SDS011;45672;51.612;5.536;2023-11-22T01:17:03;19.23;;;13.57;;
59786;SDS011;45672;51.612;5.536;2023-11-22T01:19:29;25.48;;;14.82;;
59786;SDS011;45672;51.612;5.536;2023-11-22T01:21:54;20.30;;;13.52;;
59786;SDS011;45672;51.612;5.536;2023-11-22T01:24:20;22.35;;;14.27;;
59786;SDS011;45672;51.612;5.536;2023-11-22T01:26:45;22.30;;;14.32;;
59786;SDS011;45672;51.612;5.536;2023-11-22T01:29:11;18.38;;;14.52;;
59786;SDS011;45672;51.612;5.536;2023-11-22T01:31:37;22.48;;;13.57;;
59786;SDS011;45672;51.612;5.536;2023-11-22T01:34:02;20.80;;;13.35;;
59786;SDS011;45672;51.612;5.536;2023-11-22T01:36:29;19.88;;;13.90;;
59786;SDS011;45672;51.612;5.536;2023-11-22T01:38:55;21.77;;;13.85;;
59786;SDS011;45672;51.612;5.536;2023-11-22T01:41:21;21.02;;;14.52;;
59786;SDS011;45672;51.612;5.536;2023-11-22T01:43:46;19.98;;;14.05;;
59786;SDS011;45672;51.612;5.536;2023-11-22T01:46:20;20.73;;;14.98;;
59786;SDS011;45672;51.612;5.536;2023-11-22T01:48:50;22.75;;;14.10;;
59786;SDS011;45672;51.612;5.536;2023-11-22T01:51:20;20.75;;;14.02;;
59786;SDS011;45672;51.612;5.536;2023-11-22T01:53:47;20.08;;;14.00;;
59786;SDS011;45672;51.612;5.536;2023-11-22T01:56:15;20.85;;;14.20;;
59786;SDS011;45672;51.612;5.536;2023-11-22T01:58:42;19.88;;;14.02;;
59786;SDS011;45672;51.612;5.536;2023-11-22T02:01:08;19.92;;;13.82;;
59786;SDS011;45672;51.612;5.536;2023-11-22T02:03:36;19.40;;;14.05;;
59786;SDS011;45672;51.612;5.536;2023-11-22T02:06:02;19.60;;;12.90;;
59786;SDS011;45672;51.612;5.536;2023-11-22T02:08:28;20.08;;;13.90;;
59786;SDS011;45672;51.612;5.536;2023-11-22T02:11:00;20.42;;;14.18;;
59786;SDS011;45672;51.612;5.536;2023-11-22T02:13:30;21.90;;;13.93;;
59786;SDS011;45672;51.612;5.536;2023-11-22T02:15:55;19.02;;;13.68;;
59786;SDS011;45672;51.612;5.536;2023-11-22T02:18:24;21.48;;;14.38;;
59786;SDS011;45672;51.612;5.536;2023-11-22T02:20:50;20.38;;;13.23;;
59786;SDS011;45672;51.612;5.536;2023-11-22T02:23:16;19.98;;;13.85;;
59786;SDS011;45672;51.612;5.536;2023-11-22T02:25:42;20.52;;;14.35;;
59786;SDS011;45672;51.612;5.536;2023-11-22T02:28:07;20.23;;;14.15;;
59786;SDS011;45672;51.612;5.536;2023-11-22T02:30:36;20.67;;;14.10;;
59786;SDS011;45672;51.612;5.536;2023-11-22T02:33:01;20.60;;;14.10;;
59786;SDS011;45672;51.612;5.536;2023-11-22T02:35:27;22.23;;;14.55;;
59786;SDS011;45672;51.612;5.536;2023-11-22T02:37:52;19.38;;;14.05;;
59786;SDS011;45672;51.612;5.536;2023-11-22T02:40:19;18.60;;;13.77;;
59786;SDS011;45672;51.612;5.536;2023-11-22T02:42:49;19.23;;;13.95;;
59786;SDS011;45672;51.612;5.536;2023-11-22T02:45:15;22.13;;;14.35;;
59786;SDS011;45672;51.612;5.536;2023-11-22T02:47:42;21.13;;;14.45;;
59786;SDS011;45672;51.612;5.536;2023-11-22T02:50:09;20.85;;;13.82;;
59786;SDS011;45672;51.612;5.536;2023-11-22T02:52:36;20.25;;;14.23;;
59786;SDS011;45672;51.612;5.536;2023-11-22T02:55:02;19.75;;;14.10;;
59786;SDS011;45672;51.612;5.536;2023-11-22T02:57:28;20.45;;;13.98;;
59786;SDS011;45672;51.612;5.536;2023-11-22T02:59:53;19.08;;;13.20;;
59786;SDS011;45672;51.612;5.536;2023-11-22T03:02:18;22.38;;;13.38;;
59786;SDS011;45672;51.612;5.536;2023-11-22T03:04:44;20.20;;;12.68;;
59786;SDS011;45672;51.612;5.536;2023-11-22T03:07:09;19.20;;;13.73;;
59786;SDS011;45672;51.612;5.536;2023-11-22T03:09:35;19.83;;;13.50;;
59786;SDS011;45672;51.612;5.536;2023-11-22T03:12:01;25.05;;;13.52;;
59786;SDS011;45672;51.612;5.536;2023-11-22T03:14:27;21.15;;;13.63;;
59786;SDS011;45672;51.612;5.536;2023-11-22T03:16:54;19.13;;;12.88;;
59786;SDS011;45672;51.612;5.536;2023-11-22T03:19:19;19.05;;;13.07;;
59786;SDS011;45672;51.612;5.536;2023-11-22T03:21:45;19.83;;;13.30;;
59786;SDS011;45672;51.612;5.536;2023-11-22T03:24:11;17.42;;;12.50;;
59786;SDS011;45672;51.612;5.536;2023-11-22T03:26:36;17.73;;;12.85;;
59786;SDS011;45672;51.612;5.536;2023-11-22T03:29:01;21.90;;;12.85;;
59786;SDS011;45672;51.612;5.536;2023-11-22T03:31:27;19.17;;;13.02;;
59786;SDS011;45672;51.612;5.536;2023-11-22T03:33:56;21.23;;;14.38;;
59786;SDS011;45672;51.612;5.536;2023-11-22T03:36:22;22.50;;;13.70;;
59786;SDS011;45672;51.612;5.536;2023-11-22T03:38:48;21.48;;;13.77;;
59786;SDS011;45672;51.612;5.536;2023-11-22T03:41:13;20.38;;;14.35;;
59786;SDS011;45672;51.612;5.536;2023-11-22T03:43:39;21.23;;;14.02;;
59786;SDS011;45672;51.612;5.536;2023-11-22T03:46:04;21.40;;;13.93;;
59786;SDS011;45672;51.612;5.536;2023-11-22T03:48:29;18.05;;;13.65;;
59786;SDS011;45672;51.612;5.536;2023-11-22T03:50:55;18.92;;;14.50;;
59786;SDS011;45672;51.612;5.536;2023-11-22T03:53:21;18.42;;;13.02;;
59786;SDS011;45672;51.612;5.536;2023-11-22T03:55:48;21.23;;;13.32;;
59786;SDS011;45672;51.612;5.536;2023-11-22T03:58:15;22.60;;;14.63;;
59786;SDS011;45672;51.612;5.536;2023-11-22T04:00:40;21.75;;;14.13;;
59786;SDS011;45672;51.612;5.536;2023-11-22T04:03:06;19.80;;;13.82;;
59786;SDS011;45672;51.612;5.536;2023-11-22T04:05:31;19.48;;;13.25;;
59786;SDS011;45672;51.612;5.536;2023-11-22T04:07:57;22.55;;;13.70;;
59786;SDS011;45672;51.612;5.536;2023-11-22T04:10:22;18.75;;;13.60;;
59786;SDS011;45672;51.612;5.536;2023-11-22T04:12:48;22.58;;;13.93;;
59786;SDS011;45672;51.612;5.536;2023-11-22T04:15:14;21.83;;;13.07;;
59786;SDS011;45672;51.612;5.536;2023-11-22T04:17:39;19.73;;;14.05;;
59786;SDS011;45672;51.612;5.536;2023-11-22T04:20:08;19.45;;;13.10;;
59786;SDS011;45672;51.612;5.536;2023-11-22T04:22:39;18.92;;;13.32;;
59786;SDS011;45672;51.612;5.536;2023-11-22T04:25:05;21.42;;;13.57;;
59786;SDS011;45672;51.612;5.536;2023-11-22T04:27:31;19.52;;;13.10;;
59786;SDS011;45672;51.612;5.536;2023-11-22T04:29:58;21.50;;;13.63;;
59786;SDS011;45672;51.612;5.536;2023-11-22T04:32:23;18.67;;;13.02;;
59786;SDS011;45672;51.612;5.536;2023-11-22T04:34:48;19.15;;;13.10;;
59786;SDS011;45672;51.612;5.536;2023-11-22T04:37:14;18.30;;;12.52;;
59786;SDS011;45672;51.612;5.536;2023-11-22T04:39:39;18.63;;;13.02;;
59786;SDS011;45672;51.612;5.536;2023-11-22T04:42:05;18.00;;;12.77;;
59786;SDS011;45672;51.612;5.536;2023-11-22T04:44:30;19.13;;;12.82;;
59786;SDS011;45672;51.612;5.536;2023-11-22T04:46:57;18.30;;;12.63;;
59786;SDS011;45672;51.612;5.536;2023-11-22T04:49:24;18.30;;;12.75;;
59786;SDS011;45672;51.612;5.536;2023-11-22T04:51:50;18.48;;;12.43;;
59786;SDS011;45672;51.612;5.536;2023-11-22T04:54:15;17.23;;;12.35;;
59786;SDS011;45672;51.612;5.536;2023-11-22T04:56:40;19.45;;;12.43;;
59786;SDS011;45672;51.612;5.536;2023-11-22T04:59:06;19.35;;;12.93;;
59786;SDS011;45672;51.612;5.536;2023-11-22T05:01:34;19.38;;;12.95;;
59786;SDS011;45672;51.612;5.536;2023-11-22T05:03:59;20.20;;;12.80;;
59786;SDS011;45672;51.612;5.536;2023-11-22T05:06:25;17.80;;;12.40;;
59786;SDS011;45672;51.612;5.536;2023-11-22T05:08:52;22.08;;;13.05;;
59786;SDS011;45672;51.612;5.536;2023-11-22T05:11:18;17.25;;;12.23;;
59786;SDS011;45672;51.612;5.536;2023-11-22T05:13:43;19.17;;;12.93;;
59786;SDS011;45672;51.612;5.536;2023-11-22T05:16:09;20.33;;;13.43;;
59786;SDS011;45672;51.612;5.536;2023-11-22T05:18:34;20.13;;;12.63;;
59786;SDS011;45672;51.612;5.536;2023-11-22T05:21:01;21.40;;;12.77;;
59786;SDS011;45672;51.612;5.536;2023-11-22T05:23:28;20.63;;;13.13;;
59786;SDS011;45672;51.612;5.536;2023-11-22T05:25:53;18.20;;;12.40;;
59786;SDS011;45672;51.612;5.536;2023-11-22T05:28:18;20.88;;;13.15;;
59786;SDS011;45672;51.612;5.536;2023-11-22T05:30:44;19.65;;;12.82;;
59786;SDS011;45672;51.612;5.536;2023-11-22T05:33:09;19.58;;;12.27;;
59786;SDS011;45672;51.612;5.536;2023-11-22T05:35:35;17.50;;;11.60;;
59786;SDS011;45672;51.612;5.536;2023-11-22T05:38:00;17.58;;;12.20;;
59786;SDS011;45672;51.612;5.536;2023-11-22T05:40:25;20.95;;;12.77;;
59786;SDS011;45672;51.612;5.536;2023-11-22T05:42:51;17.35;;;12.57;;
59786;SDS011;45672;51.612;5.536;2023-11-22T05:45:16;22.38;;;12.82;;
59786;SDS011;45672;51.612;5.536;2023-11-22T05:47:41;19.90;;;12.93;;
59786;SDS011;45672;51.612;5.536;2023-11-22T05:50:07;18.40;;;12.80;;
59786;SDS011;45672;51.612;5.536;2023-11-22T05:52:33;18.98;;;12.52;;
59786;SDS011;45672;51.612;5.536;2023-11-22T05:54:59;17.15;;;12.23;;
59786;SDS011;45672;51.612;5.536;2023-11-22T05:57:28;18.25;;;12.30;;
59786;SDS011;45672;51.612;5.536;2023-11-22T05:59:54;17.25;;;12.98;;
59786;SDS011;45672;51.612;5.536;2023-11-22T06:02:20;17.80;;;12.57;;
59786;SDS011;45672;51.612;5.536;2023-11-22T06:04:45;23.40;;;13.45;;
59786;SDS011;45672;51.612;5.536;2023-11-22T06:07:10;17.35;;;12.30;;
59786;SDS011;45672;51.612;5.536;2023-11-22T06:09:36;19.60;;;12.25;;
59786;SDS011;45672;51.612;5.536;2023-11-22T06:12:01;20.63;;;13.75;;
59786;SDS011;45672;51.612;5.536;2023-11-22T06:14:26;20.63;;;13.25;;
59786;SDS011;45672;51.612;5.536;2023-11-22T06:16:52;20.00;;;13.38;;
59786;SDS011;45672;51.612;5.536;2023-11-22T06:19:17;17.52;;;13.07;;
59786;SDS011;45672;51.612;5.536;2023-11-22T06:21:43;24.67;;;13.65;;
59786;SDS011;45672;51.612;5.536;2023-11-22T06:24:08;21.88;;;13.98;;
59786;SDS011;45672;51.612;5.536;2023-11-22T06:26:36;20.67;;;13.27;;
59786;SDS011;45672;51.612;5.536;2023-11-22T06:29:04;19.23;;;12.98;;
59786;SDS011;45672;51.612;5.536;2023-11-22T06:31:30;18.48;;;12.90;;
59786;SDS011;45672;51.612;5.536;2023-11-22T06:33:55;23.60;;;14.27;;
59786;SDS011;45672;51.612;5.536;2023-11-22T06:36:20;20.80;;;13.10;;
59786;SDS011;45672;51.612;5.536;2023-11-22T06:38:46;21.92;;;13.85;;
59786;SDS011;45672;51.612;5.536;2023-11-22T06:41:11;20.15;;;13.52;;
59786;SDS011;45672;51.612;5.536;2023-11-22T06:43:36;23.90;;;13.40;;
59786;SDS011;45672;51.612;5.536;2023-11-22T06:46:02;21.13;;;14.13;;
59786;SDS011;45672;51.612;5.536;2023-11-22T06:48:30;19.25;;;13.57;;
59786;SDS011;45672;51.612;5.536;2023-11-22T06:50:56;20.83;;;13.73;;
59786;SDS011;45672;51.612;5.536;2023-11-22T06:53:21;20.70;;;12.88;;
59786;SDS011;45672;51.612;5.536;2023-11-22T06:55:47;39.90;;;16.30;;
59786;SDS011;45672;51.612;5.536;2023-11-22T06:58:12;23.73;;;14.60;;
59786;SDS011;45672;51.612;5.536;2023-11-22T07:00:38;23.58;;;14.40;;
59786;SDS011;45672;51.612;5.536;2023-11-22T07:03:05;26.08;;;15.30;;
59786;SDS011;45672;51.612;5.536;2023-11-22T07:05:30;90.95;;;15.88;;
59786;SDS011;45672;51.612;5.536;2023-11-22T07:07:56;41.97;;;17.17;;
59786;SDS011;45672;51.612;5.536;2023-11-22T07:10:21;31.85;;;16.20;;
59786;SDS011;45672;51.612;5.536;2023-11-22T07:12:47;32.42;;;15.73;;
59786;SDS011;45672;51.612;5.536;2023-11-22T07:15:13;96.80;;;13.85;;
59786;SDS011;45672;51.612;5.536;2023-11-22T07:17:38;38.67;;;14.85;;
59786;SDS011;45672;51.612;5.536;2023-11-22T07:20:05;97.20;;;13.40;;
59786;SDS011;45672;51.612;5.536;2023-11-22T07:22:34;94.60;;;14.88;;
59786;SDS011;45672;51.612;5.536;2023-11-22T07:25:00;64.30;;;15.38;;
59786;SDS011;45672;51.612;5.536;2023-11-22T07:27:27;52.00;;;15.00;;
59786;SDS011;45672;51.612;5.536;2023-11-22T07:29:53;58.95;;;15.60;;
59786;SDS011;45672;51.612;5.536;2023-11-22T07:32:19;66.15;;;15.85;;
59786;SDS011;45672;51.612;5.536;2023-11-22T07:34:48;63.60;;;15.35;;
59786;SDS011;45672;51.612;5.536;2023-11-22T07:37:13;39.92;;;15.18;;
59786;SDS011;45672;51.612;5.536;2023-11-22T07:39:40;69.90;;;15.77;;
59786;SDS011;45672;51.612;5.536;2023-11-22T07:42:07;37.85;;;15.55;;
59786;SDS011;45672;51.612;5.536;2023-11-22T07:44:33;55.67;;;14.73;;
59786;SDS011;45672;51.612;5.536;2023-11-22T07:47:00;70.80;;;15.00;;
59786;SDS011;45672;51.612;5.536;2023-11-22T07:49:26;40.10;;;13.50;;
59786;SDS011;45672;51.612;5.536;2023-11-22T07:51:52;46.72;;;14.38;;
59786;SDS011;45672;51.612;5.536;2023-11-22T07:54:18;59.70;;;15.20;;
59786;SDS011;45672;51.612;5.536;2023-11-22T07:56:44;39.55;;;14.75;;
59786;SDS011;45672;51.612;5.536;2023-11-22T07:59:12;76.70;;;15.73;;
59786;SDS011;45672;51.612;5.536;2023-11-22T08:01:37;76.75;;;16.25;;
59786;SDS011;45672;51.612;5.536;2023-11-22T08:04:03;36.75;;;14.75;;
59786;SDS011;45672;51.612;5.536;2023-11-22T08:06:30;56.03;;;14.57;;
59786;SDS011;45672;51.612;5.536;2023-11-22T08:08:56;39.75;;;14.85;;
59786;SDS011;45672;51.612;5.536;2023-11-22T08:11:23;39.28;;;14.93;;
59786;SDS011;45672;51.612;5.536;2023-11-22T08:13:48;28.35;;;14.20;;
59786;SDS011;45672;51.612;5.536;2023-11-22T08:16:14;41.13;;;14.10;;
59786;SDS011;45672;51.612;5.536;2023-11-22T08:18:39;26.80;;;14.68;;
59786;SDS011;45672;51.612;5.536;2023-11-22T08:21:07;40.95;;;14.38;;
59786;SDS011;45672;51.612;5.536;2023-11-22T08:23:33;47.25;;;13.82;;
59786;SDS011;45672;51.612;5.536;2023-11-22T08:25:59;29.77;;;13.93;;
59786;SDS011;45672;51.612;5.536;2023-11-22T08:28:24;33.67;;;14.05;;
59786;SDS011;45672;51.612;5.536;2023-11-22T08:30:50;52.53;;;15.15;;
59786;SDS011;45672;51.612;5.536;2023-11-22T08:33:16;35.13;;;14.65;;
59786;SDS011;45672;51.612;5.536;2023-11-22T08:35:41;25.42;;;15.40;;
59786;SDS011;45672;51.612;5.536;2023-11-22T08:38:08;38.90;;;14.57;;
59786;SDS011;45672;51.612;5.536;2023-11-22T08:40:35;30.17;;;14.65;;
59786;SDS011;45672;51.612;5.536;2023-11-22T08:43:02;40.38;;;16.02;;
59786;SDS011;45672;51.612;5.536;2023-11-22T08:45:30;47.85;;;16.98;;
59786;SDS011;45672;51.612;5.536;2023-11-22T08:47:56;45.17;;;16.95;;
59786;SDS011;45672;51.612;5.536;2023-11-22T08:50:22;44.92;;;17.42;;
59786;SDS011;45672;51.612;5.536;2023-11-22T08:52:48;35.20;;;16.42;;
59786;SDS011;45672;51.612;5.536;2023-11-22T08:55:15;36.50;;;15.57;;
59786;SDS011;45672;51.612;5.536;2023-11-22T08:57:40;49.42;;;16.40;;
59786;SDS011;45672;51.612;5.536;2023-11-22T09:00:05;39.65;;;16.13;;
59786;SDS011;45672;51.612;5.536;2023-11-22T09:02:34;29.55;;;15.65;;
59786;SDS011;45672;51.612;5.536;2023-11-22T09:05:04;55.20;;;20.88;;
59786;SDS011;45672;51.612;5.536;2023-11-22T09:07:33;48.60;;;21.88;;
59786;SDS011;45672;51.612;5.536;2023-11-22T09:10:00;49.58;;;21.83;;
59786;SDS011;45672;51.612;5.536;2023-11-22T09:12:25;47.78;;;18.85;;
59786;SDS011;45672;51.612;5.536;2023-11-22T09:14:52;53.80;;;21.02;;
59786;SDS011;45672;51.612;5.536;2023-11-22T09:17:18;45.20;;;21.60;;
59786;SDS011;45672;51.612;5.536;2023-11-22T09:19:43;50.03;;;21.75;;
59786;SDS011;45672;51.612;5.536;2023-11-22T09:22:08;69.07;;;21.95;;
59786;SDS011;45672;51.612;5.536;2023-11-22T09:24:35;38.92;;;21.50;;
59786;SDS011;45672;51.612;5.536;2023-11-22T09:27:01;45.08;;;22.52;;
59786;SDS011;45672;51.612;5.536;2023-11-22T09:29:30;51.13;;;23.85;;
59786;SDS011;45672;51.612;5.536;2023-11-22T09:31:55;60.42;;;30.05;;
59786;SDS011;45672;51.612;5.536;2023-11-22T09:34:21;51.75;;;23.85;;
59786;SDS011;45672;51.612;5.536;2023-11-22T09:36:46;52.30;;;24.90;;
59786;SDS011;45672;51.612;5.536;2023-11-22T09:39:12;55.60;;;25.38;;
59786;SDS011;45672;51.612;5.536;2023-11-22T09:41:37;56.20;;;25.05;;
59786;SDS011;45672;51.612;5.536;2023-11-22T09:44:04;53.75;;;23.92;;
59786;SDS011;45672;51.612;5.536;2023-11-22T09:46:30;51.15;;;24.83;;
59786;SDS011;45672;51.612;5.536;2023-11-22T09:48:58;57.42;;;26.30;;
59786;SDS011;45672;51.612;5.536;2023-11-22T09:51:28;55.33;;;25.15;;
59786;SDS011;45672;51.612;5.536;2023-11-22T09:53:58;54.90;;;27.75;;
59786;SDS011;45672;51.612;5.536;2023-11-22T09:56:26;48.83;;;24.45;;
59786;SDS011;45672;51.612;5.536;2023-11-22T09:58:53;60.90;;;25.83;;
59786;SDS011;45672;51.612;5.536;2023-11-22T10:01:21;53.75;;;25.10;;
59786;SDS011;45672;51.612;5.536;2023-11-22T10:03:47;58.75;;;28.33;;
59786;SDS011;45672;51.612;5.536;2023-11-22T10:06:13;63.67;;;26.73;;
59786;SDS011;45672;51.612;5.536;2023-11-22T10:08:40;62.10;;;27.98;;
59786;SDS011;45672;51.612;5.536;2023-11-22T10:11:06;61.50;;;28.08;;
59786;SDS011;45672;51.612;5.536;2023-11-22T10:13:31;68.45;;;30.30;;
59786;SDS011;45672;51.612;5.536;2023-11-22T10:16:08;67.40;;;29.88;;
59786;SDS011;45672;51.612;5.536;2023-11-22T10:18:43;66.03;;;29.83;;
59786;SDS011;45672;51.612;5.536;2023-11-22T10:21:19;68.80;;;29.63;;
59786;SDS011;45672;51.612;5.536;2023-11-22T10:23:46;64.13;;;29.50;;
59786;SDS011;45672;51.612;5.536;2023-11-22T10:26:12;74.15;;;33.05;;
59786;SDS011;45672;51.612;5.536;2023-11-22T10:28:41;66.20;;;29.60;;
59786;SDS011;45672;51.612;5.536;2023-11-22T10:31:08;66.07;;;28.67;;
59786;SDS011;45672;51.612;5.536;2023-11-22T10:33:51;63.45;;;32.30;;
59786;SDS011;45672;51.612;5.536;2023-11-22T10:36:18;66.40;;;31.20;;
59786;SDS011;45672;51.612;5.536;2023-11-22T10:38:45;65.25;;;29.50;;
59786;SDS011;45672;51.612;5.536;2023-11-22T10:41:11;69.28;;;29.08;;
59786;SDS011;45672;51.612;5.536;2023-11-22T10:43:38;68.07;;;29.95;;
59786;SDS011;45672;51.612;5.536;2023-11-22T10:46:04;64.85;;;28.50;;
59786;SDS011;45672;51.612;5.536;2023-11-22T10:48:31;69.20;;;30.00;;
59786;SDS011;45672;51.612;5.536;2023-11-22T10:51:01;67.22;;;30.70;;
59786;SDS011;45672;51.612;5.536;2023-11-22T10:53:31;77.80;;;33.00;;
59786;SDS011;45672;51.612;5.536;2023-11-22T10:56:07;71.75;;;32.25;;
59786;SDS011;45672;51.612;5.536;2023-11-22T10:58:47;67.15;;;30.83;;
59786;SDS011;45672;51.612;5.536;2023-11-22T11:01:15;69.10;;;29.70;;
59786;SDS011;45672;51.612;5.536;2023-11-22T11:04:00;67.28;;;32.38;;
59786;SDS011;45672;51.612;5.536;2023-11-22T11:06:31;60.03;;;28.65;;
59786;SDS011;45672;51.612;5.536;2023-11-22T11:09:00;61.42;;;28.40;;
59786;SDS011;45672;51.612;5.536;2023-11-22T11:11:32;72.75;;;34.97;;
59786;SDS011;45672;51.612;5.536;2023-11-22T11:13:58;63.08;;;30.00;;
59786;SDS011;45672;51.612;5.536;2023-11-22T11:16:25;66.00;;;33.22;;
59786;SDS011;45672;51.612;5.536;2023-11-22T11:18:51;82.18;;;38.65;;
59786;SDS011;45672;51.612;5.536;2023-11-22T11:21:18;60.00;;;29.20;;
59786;SDS011;45672;51.612;5.536;2023-11-22T11:23:44;57.55;;;29.67;;
59786;SDS011;45672;51.612;5.536;2023-11-22T11:26:18;66.60;;;31.00;;
59786;SDS011;45672;51.612;5.536;2023-11-22T11:28:48;58.90;;;29.52;;
59786;SDS011;45672;51.612;5.536;2023-11-22T11:31:15;51.35;;;28.75;;
59786;SDS011;45672;51.612;5.536;2023-11-22T11:36:15;47.95;;;25.63;;
59786;SDS011;45672;51.612;5.536;2023-11-22T11:38:51;52.30;;;26.20;;
59786;SDS011;45672;51.612;5.536;2023-11-22T11:41:27;50.83;;;25.55;;
59786;SDS011;45672;51.612;5.536;2023-11-22T11:43:57;52.20;;;25.88;;
59786;SDS011;45672;51.612;5.536;2023-11-22T11:46:24;55.70;;;25.75;;
59786;SDS011;45672;51.612;5.536;2023-11-22T11:48:52;53.30;;;28.00;;
59786;SDS011;45672;51.612;5.536;2023-11-22T11:51:19;55.03;;;26.77;;
59786;SDS011;45672;51.612;5.536;2023-11-22T11:53:47;51.35;;;25.58;;
59786;SDS011;45672;51.612;5.536;2023-11-22T11:56:14;55.22;;;26.50;;
59786;SDS011;45672;51.612;5.536;2023-11-22T11:58:41;58.72;;;26.63;;
59786;SDS011;45672;51.612;5.536;2023-11-22T12:01:08;51.95;;;25.95;;
59786;SDS011;45672;51.612;5.536;2023-11-22T12:03:35;53.80;;;26.42;;
59786;SDS011;45672;51.612;5.536;2023-11-22T12:06:01;83.07;;;41.70;;
59786;SDS011;45672;51.612;5.536;2023-11-22T12:08:26;58.97;;;26.23;;
59786;SDS011;45672;51.612;5.536;2023-11-22T12:10:55;49.38;;;25.33;;
59786;SDS011;45672;51.612;5.536;2023-11-22T12:13:23;52.90;;;27.55;;
59786;SDS011;45672;51.612;5.536;2023-11-22T12:15:50;53.78;;;24.67;;
59786;SDS011;45672;51.612;5.536;2023-11-22T12:18:18;54.30;;;26.27;;
59786;SDS011;45672;51.612;5.536;2023-11-22T12:20:53;56.33;;;27.38;;
59786;SDS011;45672;51.612;5.536;2023-11-22T12:23:22;50.17;;;24.05;;
59786;SDS011;45672;51.612;5.536;2023-11-22T12:25:55;51.42;;;23.00;;
59786;SDS011;45672;51.612;5.536;2023-11-22T12:28:25;48.13;;;24.27;;
59786;SDS011;45672;51.612;5.536;2023-11-22T12:30:52;48.55;;;25.27;;
59786;SDS011;45672;51.612;5.536;2023-11-22T12:33:17;58.58;;;26.52;;
59786;SDS011;45672;51.612;5.536;2023-11-22T12:35:44;48.22;;;24.75;;
59786;SDS011;45672;51.612;5.536;2023-11-22T12:38:10;66.32;;;32.70;;
59786;SDS011;45672;51.612;5.536;2023-11-22T12:40:35;55.97;;;25.02;;
59786;SDS011;45672;51.612;5.536;2023-11-22T12:43:01;67.40;;;32.33;;
59786;SDS011;45672;51.612;5.536;2023-11-22T12:45:28;56.63;;;26.05;;
59786;SDS011;45672;51.612;5.536;2023-11-22T12:47:55;59.30;;;28.33;;
59786;SDS011;45672;51.612;5.536;2023-11-22T12:53:13;51.35;;;25.85;;
59786;SDS011;45672;51.612;5.536;2023-11-22T12:55:43;54.30;;;25.90;;
59786;SDS011;45672;51.612;5.536;2023-11-22T12:58:10;58.20;;;27.48;;
59786;SDS011;45672;51.612;5.536;2023-11-22T13:00:37;56.95;;;29.30;;
59786;SDS011;45672;51.612;5.536;2023-11-22T13:03:05;71.43;;;38.20;;
59786;SDS011;45672;51.612;5.536;2023-11-22T13:05:31;45.53;;;25.08;;
59786;SDS011;45672;51.612;5.536;2023-11-22T13:07:56;46.70;;;25.48;;
59786;SDS011;45672;51.612;5.536;2023-11-22T13:10:22;48.83;;;24.55;;
59786;SDS011;45672;51.612;5.536;2023-11-22T13:12:54;37.05;;;20.85;;
59786;SDS011;45672;51.612;5.536;2023-11-22T13:15:20;39.30;;;20.92;;
59786;SDS011;45672;51.612;5.536;2023-11-22T13:17:49;38.88;;;20.17;;
59786;SDS011;45672;51.612;5.536;2023-11-22T13:20:15;42.28;;;22.10;;
59786;SDS011;45672;51.612;5.536;2023-11-22T13:22:41;39.80;;;20.50;;
59786;SDS011;45672;51.612;5.536;2023-11-22T13:25:10;44.22;;;21.88;;
59786;SDS011;45672;51.612;5.536;2023-11-22T13:27:38;47.40;;;24.15;;
59786;SDS011;45672;51.612;5.536;2023-11-22T13:30:05;40.22;;;24.13;;
59786;SDS011;45672;51.612;5.536;2023-11-22T13:32:31;42.92;;;23.90;;
59786;SDS011;45672;51.612;5.536;2023-11-22T13:34:57;45.58;;;23.95;;
59786;SDS011;45672;51.612;5.536;2023-11-22T13:37:26;43.30;;;23.30;;
59786;SDS011;45672;51.612;5.536;2023-11-22T13:39:55;41.08;;;21.45;;
59786;SDS011;45672;51.612;5.536;2023-11-22T13:42:20;44.50;;;24.50;;
59786;SDS011;45672;51.612;5.536;2023-11-22T13:44:45;46.33;;;25.73;;
59786;SDS011;45672;51.612;5.536;2023-11-22T13:47:12;49.38;;;27.25;;
59786;SDS011;45672;51.612;5.536;2023-11-22T13:49:39;41.17;;;23.60;;
59786;SDS011;45672;51.612;5.536;2023-11-22T13:52:04;45.22;;;22.85;;
59786;SDS011;45672;51.612;5.536;2023-11-22T13:54:30;40.55;;;21.88;;
59786;SDS011;45672;51.612;5.536;2023-11-22T13:56:58;37.38;;;22.45;;
59786;SDS011;45672;51.612;5.536;2023-11-22T13:59:24;39.72;;;22.13;;
59786;SDS011;45672;51.612;5.536;2023-11-22T14:01:50;46.70;;;24.00;;
59786;SDS011;45672;51.612;5.536;2023-11-22T14:04:16;42.67;;;21.83;;
59786;SDS011;45672;51.612;5.536;2023-11-22T14:06:41;42.40;;;25.45;;
59786;SDS011;45672;51.612;5.536;2023-11-22T14:09:06;42.30;;;23.17;;
59786;SDS011;45672;51.612;5.536;2023-11-22T14:11:33;46.13;;;26.95;;
59786;SDS011;45672;51.612;5.536;2023-11-22T14:14:01;45.78;;;29.02;;
59786;SDS011;45672;51.612;5.536;2023-11-22T14:16:28;48.72;;;25.30;;
59786;SDS011;45672;51.612;5.536;2023-11-22T14:18:56;47.50;;;27.52;;
59786;SDS011;45672;51.612;5.536;2023-11-22T14:21:22;54.38;;;28.75;;
59786;SDS011;45672;51.612;5.536;2023-11-22T14:23:49;57.08;;;31.08;;